Latest Coastal Weather Observations for Hamilton Island

IDQ60701

Issued at 3:43 pm EST Thursday 12 December 2019 (issued every 10 minutes, with the page automatically refreshed every 10 minutes)

About coastal observations | Map of coastal stations | Coastal observations for QLD | Marine services | Other Formats
Station Details ID: 033106 Name: HAMILTON ISLAND AIRPORT Lat: -20.37 Lon: 148.95 Height: 58.66 m
Data from the previous 72 hours. | See also: Recent months at Hamilton Island
Date/Time
EST
Wind Sea
Height
m
Swell Vis
km
Cloud Weather Temp
°C
Press
hPa
Rain since
9am
mm
Dir  Spd
kts
Gust
kts
Height
m
Period
s
Dir
12/03:30pm E 13 16 - - - - 10 Clear - 28.1 1008.8 0.0
12/03:00pm E 13 15 - - - - 10 - - 28.6 1009.2 0.0
12/02:30pm E 13 15 - - - - 10 - - 28.6 1009.4 0.0
12/02:00pm ESE 13 15 - - - - 10 - - 28.7 1009.6 0.0
12/01:30pm E 13 15 - - - - 10 Partly cloudy - 28.6 1010.0 0.0
12/01:00pm ESE 14 16 - - - - 10 Partly cloudy - 29.0 1010.3 0.0
12/12:30pm ESE 15 17 - - - - 10 Partly cloudy - 28.9 1010.4 0.0
12/12:00pm E 15 16 - - - - 10 Mostly clear - 29.3 1010.6 0.0
12/11:30am ESE 13 15 - - - - 10 Partly cloudy - 29.2 1010.8 0.0
12/11:00am ESE 11 13 - - - - 10 Partly cloudy - 29.5 1010.9 0.0
12/10:30am ESE 12 14 - - - - 10 Partly cloudy - 28.6 1011.2 0.0
12/10:00am E 11 13 - - - - 10 Partly cloudy - 28.6 1011.6 0.0
12/09:30am E 11 13 - - - - 10 Partly cloudy - 28.3 1011.8 0.0
12/09:00am E 13 15 - - - - 10 Cloudy - 28.5 1012.0 0.0
12/08:30am E 15 19 - - - - 10 Partly cloudy - 28.2 1011.8 0.0
12/08:00am E 14 16 - - - - 10 Partly cloudy - 27.5 1011.6 0.0
12/07:30am E 14 18 - - - - 10 Partly cloudy - 27.3 1011.4 0.0
12/07:00am ESE 16 18 - - - - 10 Partly cloudy - 27.3 1011.4 0.0
12/06:30am ESE 17 20 - - - - 10 Partly cloudy - 26.2 1010.9 0.0
12/06:00am ESE 17 20 - - - - 10 Partly cloudy - 26.0 1010.8 0.0
12/05:30am E 17 19 - - - - 10 Partly cloudy - 25.8 1010.1 0.0
12/05:00am E 13 16 - - - - 10 Partly cloudy - 25.7 1009.9 0.0
12/04:30am ESE 12 15 - - - - 10 Partly cloudy - 25.6 1009.8 0.0
12/04:00am ESE 12 14 - - - - 10 Partly cloudy - 25.6 1009.5 0.0
12/03:30am ESE 11 14 - - - - 10 Partly cloudy - 25.7 1009.5 0.0
12/03:00am E 8 11 - - - - 10 - - 25.5 1009.6 0.0
12/02:30am ENE 6 7 - - - - 10 - - 25.0 1009.5 0.0
12/02:00am ENE 7 8 - - - - 10 Partly cloudy - 25.2 1009.5 0.0
12/01:30am NE 7 9 - - - - 10 Partly cloudy - 25.3 1009.6 0.0
12/01:00am ENE 10 12 - - - - 10 - - 25.5 1010.0 0.0
12/12:30am NE 13 15 - - - - 10 Partly cloudy - 25.7 1010.2 0.0
12/12:00am E 12 15 - - - - 10 Partly cloudy - 25.9 1011.3 0.0
 
Date/Time
EST
Wind Sea
Height
m
Swell Vis
km
Cloud Weather Temp
°C
Press
hPa
Rain since
9am
mm
Dir  Spd
kts
Gust
kts
Height
m
Period
s
Dir
11/11:30pm ESE 14 17 - - - - 10 Partly cloudy - 26.0 1011.9 0.0
11/11:00pm E 15 17 - - - - 10 Partly cloudy - 26.1 1012.3 0.0
11/10:31pm E 16 19 - - - - 10 Partly cloudy - 26.1 1012.5 0.0
11/10:30pm E 16 19 - - - - 10 Partly cloudy - 26.1 1012.5 0.0
11/10:00pm ESE 14 16 - - - - 10 Partly cloudy - 26.2 1012.7 0.0
11/09:52pm E 14 16 - - - - 10 Partly cloudy - 26.2 1012.6 0.0
11/09:40pm E 16 17 - - - - 10 Partly cloudy - 26.2 1012.5 0.0
11/09:30pm E 15 17 - - - - 10 Partly cloudy - 26.4 1012.5 0.0
11/09:05pm E 12 14 - - - - 10 Partly cloudy - 26.3 1012.3 0.0
11/09:00pm E 12 16 - - - - 10 Mostly cloudy - 26.4 1012.3 0.0
11/08:53pm E 14 17 - - - - 10 Partly cloudy - 26.3 1012.1 0.0
11/08:37pm E 14 17 - - - - 10 Partly cloudy - 26.3 1012.0 0.0
11/08:30pm E 13 17 - - - - 10 Partly cloudy - 26.2 1012.0 0.0
11/08:00pm E 15 18 - - - - 10 Partly cloudy - 26.4 1011.8 0.0
11/07:37pm E 14 18 - - - - 10 Partly cloudy - 26.4 1011.7 0.0
11/07:30pm E 16 18 - - - - 10 Partly cloudy - 26.3 1011.6 0.0
11/07:02pm E 16 18 - - - - 10 Partly cloudy - 26.5 1011.4 0.0
11/07:00pm ESE 16 18 - - - - 10 Partly cloudy - 26.4 1011.5 0.0
11/06:40pm E 15 18 - - - - 10 Partly cloudy - 26.4 1011.3 0.0
11/06:30pm ESE 15 18 - - - - 10 Partly cloudy - 26.5 1011.2 0.0
11/06:00pm ESE 15 18 - - - - 10 Cloudy - 26.8 1010.9 0.0
11/05:38pm ESE 16 19 - - - - 10 Partly cloudy - 27.0 1010.6 0.0
11/05:30pm ESE 15 18 - - - - 10 Partly cloudy - 26.8 1010.5 0.0
11/05:00pm ESE 15 17 - - - - 10 Partly cloudy - 27.4 1010.3 0.0
11/04:30pm ESE 15 18 - - - - 10 Partly cloudy - 27.8 1010.2 0.0
11/04:00pm ESE 16 18 - - - - 10 Partly cloudy - 28.0 1010.1 0.0
11/03:30pm E 16 18 - - - - 10 Partly cloudy - 28.2 1010.2 0.0
11/03:06pm ESE 16 19 - - - - 10 Partly cloudy - 28.9 1010.3 0.0
11/03:00pm ESE 16 19 - - - - 10 Partly cloudy - 28.1 1010.3 0.0
11/02:54pm ESE 17 19 - - - - 10 Partly cloudy - 28.6 1010.5 0.0
11/02:30pm ESE 17 19 - - - - 10 Partly cloudy - 28.6 1010.6 0.0
11/02:00pm ESE 16 19 - - - - 10 Partly cloudy - 28.7 1010.8 0.0
11/01:30pm ESE 17 20 - - - - 10 Partly cloudy - 28.7 1011.2 0.0
11/01:00pm ESE 16 19 - - - - 10 Partly cloudy - 29.1 1011.5 0.0
11/12:30pm ESE 16 18 - - - - 10 Partly cloudy - 28.6 1011.7 0.0
11/12:00pm ESE 15 17 - - - - 10 Cloudy - 29.4 1011.9 0.0
11/11:30am ESE 13 15 - - - - 10 Cloudy - 28.8 1012.2 0.0
11/11:00am ESE 14 15 - - - - 10 Partly cloudy - 29.6 1012.4 0.0
11/10:30am SE 14 17 - - - - 10 - - 29.5 1012.6 0.0
11/10:00am ESE 15 17 - - - - 10 Partly cloudy - 29.4 1012.7 0.0
11/09:30am ESE 16 19 - - - - 10 Partly cloudy - 28.4 1012.7 0.0
11/09:00am ESE 16 20 - - - - 10 Cloudy - 28.2 1012.7 0.0
11/08:30am ESE 17 20 - - - - 10 Partly cloudy - 27.8 1012.5 0.0
11/08:00am ESE 18 21 - - - - 10 Partly cloudy - 28.2 1012.4 0.0
11/07:36am SE 17 20 - - - - 10 Partly cloudy - 28.4 1012.2 0.0
11/07:30am SE 17 20 - - - - 10 Partly cloudy - 27.2 1012.2 0.0
11/07:00am ESE 17 19 - - - - 10 Partly cloudy - 26.6 1011.9 0.0
11/06:51am ESE 17 20 - - - - 10 Partly cloudy - 27.2 1011.8 0.0
11/06:30am SE 14 16 - - - - 10 - - 27.0 1011.7 0.0
11/06:15am SE 15 17 - - - - 10 Partly cloudy - 26.6 1011.6 0.0
11/06:00am SE 15 17 - - - - 10 Partly cloudy - 26.1 1011.6 0.0
11/05:40am SE 15 18 - - - - 10 Partly cloudy - 25.7 1011.5 0.0
11/05:30am SE 15 18 - - - - 10 Partly cloudy - 25.6 1011.4 0.0
11/05:00am SE 16 19 - - - - 10 Partly cloudy - 25.8 1011.2 0.0
11/04:59am SE 16 19 - - - - 10 Partly cloudy - 25.7 1011.2 0.0
11/04:30am SE 15 17 - - - - 10 Partly cloudy - 25.8 1010.8 0.0
11/04:09am SE 14 17 - - - - 10 Partly cloudy - 25.6 1010.8 0.0
11/04:00am SE 14 17 - - - - 10 Partly cloudy - 25.6 1010.9 0.0
11/03:48am SE 13 15 - - - - 10 Partly cloudy - 25.5 1010.9 0.0
11/03:30am SE 13 15 - - - - 10 Partly cloudy - 25.6 1010.8 0.0
11/03:07am SE 14 16 - - - - 10 Partly cloudy - 25.6 1010.8 0.0
11/03:00am SE 13 16 - - - - 10 Partly cloudy - 25.6 1010.8 0.0
11/02:30am ESE 15 19 - - - - 10 Partly cloudy - 25.7 1010.9 0.0
11/02:00am ESE 14 16 - - - - 10 Partly cloudy - 25.8 1011.2 0.0
11/01:30am ESE 13 16 - - - - 10 Partly cloudy - 25.7 1011.5 0.0
11/01:00am ESE 16 20 - - - - 10 Partly cloudy - 25.9 1012.0 0.0
11/12:30am ESE 14 17 - - - - 10 Partly cloudy - 25.8 1012.4 0.0
11/12:00am ESE 15 18 - - - - 10 Mostly cloudy - 25.9 1013.0 0.0
 
Date/Time
EST
Wind Sea
Height
m
Swell Vis
km
Cloud Weather Temp
°C
Press
hPa
Rain since
9am
mm
Dir  Spd
kts
Gust
kts
Height
m
Period
s
Dir
10/11:31pm ESE 15 17 - - - - 10 Partly cloudy - 25.9 1013.5 0.0
10/11:30pm ESE 15 17 - - - - 10 Partly cloudy - 25.8 1013.5 0.0
10/11:00pm ESE 15 18 - - - - 10 Partly cloudy - 25.8 1013.7 0.0
10/10:46pm ESE 16 19 - - - - 10 Partly cloudy - 25.8 1013.8 0.0
10/10:43pm ESE 17 20 - - - - 10 Partly cloudy - 25.8 1013.8 0.0
10/10:30pm ESE 17 21 - - - - 10 Partly cloudy - 25.8 1013.7 0.0
10/10:08pm ESE 18 22 - - - - 10 Partly cloudy - 26.0 1013.8 0.0
10/10:00pm ESE 17 20 - - - - 10 Partly cloudy - 26.0 1013.7 0.0
10/09:54pm ESE 17 22 - - - - 10 Partly cloudy - 25.9 1013.7 0.0
10/09:30pm ESE 17 20 - - - - 10 Partly cloudy - 25.9 1013.7 0.0
10/09:00pm ESE 16 20 - - - - 10 Mostly cloudy - 26.0 1013.6 0.0
10/08:35pm ESE 15 17 - - - - 10 Partly cloudy - 25.9 1013.5 0.0
10/08:30pm ESE 16 19 - - - - 10 Partly cloudy - 25.8 1013.4 0.0
10/08:00pm ESE 15 18 - - - - 10 Partly cloudy - 26.0 1013.3 0.0
10/07:30pm ESE 15 17 - - - - 10 Partly cloudy - 25.8 1013.0 0.0
10/07:02pm ESE 17 19 - - - - 10 Partly cloudy - 26.0 1012.8 0.0
10/07:00pm ESE 17 21 - - - - 10 Partly cloudy - 26.0 1012.8 0.0
10/06:30pm ESE 17 20 - - - - 10 Partly cloudy - 26.0 1012.6 0.0
10/06:00pm ESE 17 19 - - - - 10 Mostly cloudy - 26.4 1012.7 0.0
10/05:30pm ESE 17 21 - - - - 10 Partly cloudy - 26.7 1012.6 0.0
10/05:00pm ESE 18 21 - - - - 10 Partly cloudy - 26.8 1012.5 0.0
10/04:30pm ESE 18 22 - - - - 10 Partly cloudy - 27.0 1012.4 0.0
10/04:00pm ESE 19 21 - - - - 10 Partly cloudy - 27.3 1012.2 0.0
10/03:30pm ESE 17 20 - - - - 10 Partly cloudy - 27.9 1012.3 0.0
10/03:00pm ESE 16 19 - - - - 10 Partly cloudy - 28.2 1012.7 0.0
10/02:30pm ESE 15 19 - - - - 10 Cloudy - 28.4 1012.9 0.0
10/02:00pm ESE 17 19 - - - - 10 Partly cloudy - 28.3 1013.3 0.0
10/01:30pm ESE 18 21 - - - - 10 Partly cloudy - 27.7 1013.5 0.0
10/01:00pm SE 18 20 - - - - 10 Partly cloudy - 28.3 1013.8 0.0
10/12:30pm SE 18 21 - - - - 10 Cloudy - 27.6 1014.2 0.0
10/12:00pm ESE 18 21 - - - - 10 Cloudy - 27.4 1014.8 0.0
10/11:30am ESE 18 21 - - - - 10 Partly cloudy - 28.2 1015.0 0.0
10/11:00am ESE 20 23 - - - - 10 Partly cloudy - 27.2 1015.3 0.0
10/10:30am SE 19 22 - - - - 10 Partly cloudy - 27.4 1015.6 0.0
10/10:00am SE 20 23 - - - - 10 Partly cloudy - 27.5 1016.0 0.0
10/09:30am ESE 18 21 - - - - 10 Cloudy - 26.9 1016.2 0.0
10/09:00am SE 18 22 - - - - 10 Cloudy - 26.7 1016.2 0.0
10/08:30am ESE 18 21 - - - - 10 Cloudy - 26.6 1016.0 0.0
10/08:00am SE 19 22 - - - - 10 Cloudy - 27.3 1015.9 0.0
10/07:30am SE 20 23 - - - - 10 Partly cloudy - 26.7 1015.6 0.0
10/07:00am SE 20 23 - - - - 10 Cloudy - 26.1 1015.2 0.0
10/06:30am SE 19 24 - - - - 10 Cloudy - 25.8 1014.8 0.0
10/06:00am SE 19 22 - - - - 10 Cloudy - 25.6 1014.6 0.0
10/05:30am SE 20 23 - - - - 10 Partly cloudy - 25.6 1014.1 0.0
10/05:00am SE 21 25 - - - - 10 Cloudy - 25.5 1013.8 0.0
10/04:30am SE 20 23 - - - - 10 Partly cloudy - 25.5 1013.6 0.0
10/04:00am SE 21 25 - - - - 10 Partly cloudy - 25.5 1013.6 0.0
10/03:30am SE 21 24 - - - - 10 Partly cloudy - 25.4 1013.6 0.0
10/03:00am SE 19 24 - - - - 10 Cloudy - 25.4 1013.9 0.0
10/02:30am SE 20 23 - - - - 10 Partly cloudy - 25.6 1014.0 0.0
10/02:00am SE 20 23 - - - - 10 Partly cloudy - 25.6 1014.2 0.0
10/01:30am SE 21 25 - - - - 10 Partly cloudy - 25.5 1014.3 0.0
10/01:00am ESE 19 23 - - - - 10 Partly cloudy - 25.8 1014.8 0.0
10/12:30am ESE 22 26 - - - - 10 Partly cloudy - 25.4 1015.2 0.0
10/12:00am SE 18 21 - - - - 10 Partly cloudy - 25.8 1015.7 0.0
 
Date/Time
EST
Wind Sea
Height
m
Swell Vis
km
Cloud Weather Temp
°C
Press
hPa
Rain since
9am
mm
Dir  Spd
kts
Gust
kts
Height
m
Period
s
Dir
09/11:30pm ESE 18 24 - - - - 10 Partly cloudy - 25.9 1015.9 0.0
09/11:00pm ESE 19 24 - - - - 10 Partly cloudy - 25.8 1016.1 0.0
09/10:30pm ESE 21 26 - - - - 10 Partly cloudy - 26.0 1016.2 0.0
09/10:00pm ESE 20 23 - - - - 10 Partly cloudy - 26.0 1016.2 0.0
09/09:30pm ESE 18 22 - - - - 10 Partly cloudy - 26.0 1016.3 0.0
09/09:00pm ESE 18 21 - - - - 10 Mostly cloudy - 26.3 1016.2 0.0
09/08:30pm ESE 19 23 - - - - 10 Partly cloudy - 26.2 1016.1 0.0
09/08:00pm ESE 19 22 - - - - 10 Partly cloudy - 26.1 1016.2 0.0
09/07:30pm ESE 20 23 - - - - 10 Partly cloudy - 26.1 1016.0 0.0
09/07:00pm ESE 18 22 - - - - 10 Partly cloudy - 26.0 1015.8 0.0
09/06:30pm ESE 17 21 - - - - 10 Partly cloudy - 26.1 1015.6 0.0
09/06:00pm ESE 17 23 - - - - 10 Cloudy - 26.2 1015.2 0.0
09/05:30pm ESE 18 24 - - - - 10 Partly cloudy - 26.8 1015.1 0.0
09/05:00pm ESE 19 22 - - - - 10 Partly cloudy - 27.0 1014.9 0.0
09/04:30pm ESE 17 22 - - - - 10 Partly cloudy - 27.4 1014.6 0.0
09/04:00pm ESE 16 19 - - - - 10 Partly cloudy - 28.0 1014.6 0.0

Other formats

Comma delimited format used in spreadsheet applications
http://www.bom.gov.au/fwo/IDQ60701/IDQ60701.94368.axf

JavaScript Object Notation format (JSON) in row-major order
http://www.bom.gov.au/fwo/IDQ60701/IDQ60701.94368.json

Data quality

Most of these data are generated automatically and are frequently updated. Quality checks on data are not normally performed. It is possible for incorrect values to appear. Refer to information at About Latest Weather Observations and please check the disclaimer before using these data.